createdAt,value
2019-01-17T00:01:27.054Z,6.10
2019-01-17T00:03:56.106Z,5.20
2019-01-17T00:06:27.344Z,5.33
2019-01-17T00:08:59.581Z,4.62
2019-01-17T00:11:31.581Z,4.97
2019-01-17T00:14:02.911Z,5.60
2019-01-17T00:16:33.939Z,5.12
2019-01-17T00:19:06.377Z,4.70
2019-01-17T00:21:37.534Z,4.75
2019-01-17T00:24:08.514Z,5.10
2019-01-17T00:26:39.199Z,6.00
2019-01-17T00:29:11.448Z,5.47
2019-01-17T00:31:42.331Z,4.53
2019-01-17T00:34:13.300Z,4.83
2019-01-17T00:36:45.413Z,4.70
2019-01-17T00:39:17.447Z,4.67
2019-01-17T00:41:49.562Z,3.97
2019-01-17T00:44:20.646Z,4.33
2019-01-17T00:46:52.652Z,4.20
2019-01-17T00:49:24.704Z,4.37
2019-01-17T00:51:55.012Z,4.30
2019-01-17T00:54:25.302Z,4.77
2019-01-17T00:56:56.001Z,4.20
2019-01-17T00:59:27.140Z,3.90
2019-01-17T01:01:57.774Z,4.70
2019-01-17T01:04:29.485Z,4.50
2019-01-17T01:07:00.434Z,3.60
2019-01-17T01:09:33.377Z,3.90
2019-01-17T01:12:04.382Z,3.75
2019-01-17T01:14:34.678Z,3.87
2019-01-17T01:17:07.355Z,4.07
2019-01-17T01:19:36.861Z,3.60
2019-01-17T01:22:07.951Z,4.37
2019-01-17T01:24:39.693Z,3.80
2019-01-17T01:27:10.902Z,4.03
2019-01-17T01:29:42.866Z,3.80
2019-01-17T01:32:13.474Z,3.70
2019-01-17T01:34:45.445Z,3.67
2019-01-17T01:37:15.793Z,3.73
2019-01-17T01:39:46.062Z,4.30
2019-01-17T01:42:16.402Z,3.50
2019-01-17T01:44:47.122Z,3.70
2019-01-17T01:47:16.261Z,3.40
2019-01-17T01:49:47.316Z,4.13
2019-01-17T01:52:18.065Z,4.40
2019-01-17T01:54:46.392Z,4.30
2019-01-17T01:57:14.753Z,3.98
2019-01-17T01:59:43.070Z,3.30
2019-01-17T02:02:12.204Z,3.55
2019-01-17T02:04:40.556Z,3.70
2019-01-17T02:07:09.004Z,3.80
2019-01-17T02:09:37.571Z,4.30
2019-01-17T02:12:05.953Z,3.63
2019-01-17T02:14:34.447Z,3.80
2019-01-17T02:17:03.089Z,4.10
2019-01-17T02:19:31.496Z,4.30
2019-01-17T02:21:59.832Z,3.67
2019-01-17T02:24:28.630Z,4.10
2019-01-17T02:26:57.083Z,4.03
2019-01-17T02:29:25.432Z,3.93
2019-01-17T02:31:53.724Z,3.90
2019-01-17T02:34:22.134Z,4.30
2019-01-17T02:36:50.508Z,4.80
2019-01-17T02:39:18.925Z,4.40
2019-01-17T02:41:47.233Z,4.23
2019-01-17T02:44:15.560Z,3.60
2019-01-17T02:46:43.933Z,3.87
2019-01-17T02:49:12.919Z,4.10
2019-01-17T02:51:41.218Z,3.43
2019-01-17T02:54:09.617Z,3.23
2019-01-17T02:56:37.947Z,3.63
2019-01-17T02:59:06.366Z,4.10
2019-01-17T03:01:34.739Z,3.75
2019-01-17T03:04:03.435Z,3.67
2019-01-17T03:06:31.742Z,5.10
2019-01-17T03:09:00.138Z,3.43
2019-01-17T03:11:28.475Z,3.40
2019-01-17T03:13:56.817Z,3.60
2019-01-17T03:16:25.189Z,3.77
2019-01-17T03:18:53.516Z,3.08
2019-01-17T03:21:22.607Z,3.50
2019-01-17T03:23:50.924Z,3.30
2019-01-17T03:26:19.297Z,3.30
2019-01-17T03:28:47.610Z,3.45
2019-01-17T03:31:15.942Z,3.87
2019-01-17T03:33:44.334Z,3.57
2019-01-17T03:36:13.044Z,3.50
2019-01-17T03:38:41.342Z,3.10
2019-01-17T03:41:10.300Z,3.60
2019-01-17T03:43:38.582Z,3.20
2019-01-17T03:46:07.075Z,3.30
2019-01-17T03:48:35.386Z,3.20
2019-01-17T03:51:03.773Z,3.03
2019-01-17T03:53:32.233Z,3.40
2019-01-17T03:56:00.695Z,3.30
2019-01-17T03:58:29.049Z,3.27
2019-01-17T04:00:57.446Z,3.10
2019-01-17T04:03:25.785Z,3.57
2019-01-17T04:05:54.144Z,3.33
2019-01-17T04:08:22.474Z,2.90
2019-01-17T04:10:50.817Z,3.02
2019-01-17T04:13:19.163Z,3.00
2019-01-17T04:15:47.508Z,2.80
2019-01-17T04:18:15.959Z,3.47
2019-01-17T04:20:44.270Z,2.60
2019-01-17T04:23:12.993Z,2.95
2019-01-17T04:25:41.379Z,2.87
2019-01-17T04:28:10.051Z,2.60
2019-01-17T04:30:38.465Z,2.37
2019-01-17T04:33:06.809Z,2.83
2019-01-17T04:35:35.186Z,2.50
2019-01-17T04:38:03.648Z,2.77
2019-01-17T04:40:31.947Z,2.20
2019-01-17T04:43:00.266Z,2.20
2019-01-17T04:45:28.590Z,2.70
2019-01-17T04:47:56.926Z,2.43
2019-01-17T04:50:25.230Z,2.13
2019-01-17T04:52:53.589Z,2.40
2019-01-17T04:55:22.035Z,2.30
2019-01-17T04:57:50.433Z,2.63
2019-01-17T05:00:19.428Z,2.97
2019-01-17T05:02:47.915Z,2.33
2019-01-17T05:05:16.391Z,2.40
2019-01-17T05:07:44.713Z,2.23
2019-01-17T05:10:14.994Z,2.33
2019-01-17T05:12:43.348Z,2.17
2019-01-17T05:15:12.860Z,2.00
2019-01-17T05:17:41.232Z,2.15
2019-01-17T05:20:11.944Z,2.50
2019-01-17T05:22:40.956Z,2.10
2019-01-17T05:25:12.837Z,2.40
2019-01-17T05:27:40.363Z,2.27
2019-01-17T05:30:13.118Z,2.33
2019-01-17T05:32:41.574Z,2.60
2019-01-17T05:35:10.229Z,2.10
2019-01-17T05:37:38.612Z,2.70
2019-01-17T05:40:09.461Z,2.80
2019-01-17T05:42:37.834Z,2.92
2019-01-17T05:45:07.044Z,2.62
2019-01-17T05:47:35.445Z,2.50
2019-01-17T05:50:06.180Z,2.57
2019-01-17T05:52:34.871Z,2.90
2019-01-17T05:55:03.796Z,3.30
2019-01-17T05:57:32.074Z,2.93
2019-01-17T06:00:00.423Z,2.70
2019-01-17T06:02:29.644Z,2.67
2019-01-17T06:04:58.031Z,3.27
2019-01-17T06:07:26.618Z,3.07
2019-01-17T06:09:55.700Z,3.50
2019-01-17T06:12:24.051Z,3.70
2019-01-17T06:14:52.439Z,3.23
2019-01-17T06:17:21.762Z,3.10
2019-01-17T06:19:50.075Z,3.30
2019-01-17T06:22:18.421Z,3.57
2019-01-17T06:24:46.749Z,5.40
2019-01-17T06:27:15.144Z,3.60
2019-01-17T06:29:43.465Z,4.00
2019-01-17T06:32:11.981Z,3.62
2019-01-17T06:34:40.791Z,3.33
2019-01-17T06:37:10.127Z,3.60
2019-01-17T06:39:38.919Z,3.65
2019-01-17T06:42:07.240Z,3.47
2019-01-17T06:44:36.951Z,3.90
2019-01-17T06:47:05.383Z,4.13
2019-01-17T06:49:34.273Z,3.60
2019-01-17T06:52:02.677Z,4.10
2019-01-17T06:54:31.031Z,3.50
2019-01-17T06:56:59.369Z,4.00
2019-01-17T06:59:27.733Z,3.90
2019-01-17T07:01:56.084Z,4.43
2019-01-17T07:04:24.436Z,4.55
2019-01-17T07:06:52.828Z,3.40
2019-01-17T07:09:21.117Z,3.45
2019-01-17T07:11:49.514Z,3.08
2019-01-17T07:14:17.833Z,3.87
2019-01-17T07:16:46.184Z,3.33
2019-01-17T07:19:14.485Z,3.22
2019-01-17T07:21:42.822Z,3.07
2019-01-17T07:24:11.198Z,2.60
2019-01-17T07:26:39.535Z,2.93
2019-01-17T07:29:08.057Z,3.80
2019-01-17T07:31:36.385Z,3.20
2019-01-17T07:34:04.797Z,3.10
2019-01-17T07:36:33.107Z,3.30
2019-01-17T07:39:01.437Z,2.77
2019-01-17T07:41:29.765Z,2.93
2019-01-17T07:43:58.089Z,3.10
2019-01-17T07:46:26.415Z,3.23
2019-01-17T07:48:54.828Z,2.87
2019-01-17T07:51:23.199Z,2.97
2019-01-17T07:53:53.424Z,2.62
2019-01-17T07:56:22.667Z,2.20
2019-01-17T07:58:50.993Z,2.60
2019-01-17T08:01:19.326Z,3.08
2019-01-17T08:03:47.622Z,2.57
2019-01-17T08:06:16.051Z,2.73
2019-01-17T08:08:44.362Z,2.80
2019-01-17T08:11:12.781Z,2.90
2019-01-17T08:13:41.176Z,2.50
2019-01-17T08:16:09.473Z,3.37
2019-01-17T08:18:37.845Z,3.33
2019-01-17T08:21:06.391Z,2.70
2019-01-17T08:23:34.939Z,2.57
2019-01-17T08:26:03.507Z,3.93
2019-01-17T08:28:31.885Z,2.90
2019-01-17T08:31:00.734Z,3.05
2019-01-17T08:33:29.074Z,3.03
2019-01-17T08:35:57.390Z,2.70
2019-01-17T08:38:25.762Z,2.70
2019-01-17T08:40:54.088Z,3.20
2019-01-17T08:43:22.433Z,2.83
2019-01-17T08:45:50.762Z,3.02
2019-01-17T08:48:19.708Z,3.70
2019-01-17T08:50:48.062Z,3.67
2019-01-17T08:53:16.469Z,3.87
2019-01-17T08:55:44.750Z,3.47
2019-01-17T08:58:13.081Z,3.50
2019-01-17T09:00:41.410Z,3.73
2019-01-17T09:03:09.907Z,3.30
2019-01-17T09:05:38.260Z,8.57
2019-01-17T09:08:06.859Z,5.60
2019-01-17T09:10:35.233Z,4.80
2019-01-17T09:13:03.799Z,4.55
2019-01-17T09:15:32.925Z,3.50
2019-01-17T09:18:01.253Z,4.00
2019-01-17T09:20:29.630Z,3.47
2019-01-17T09:22:59.775Z,4.37
2019-01-17T09:25:28.245Z,3.23
2019-01-17T09:27:57.088Z,3.20
2019-01-17T09:30:25.501Z,2.97
2019-01-17T09:32:54.356Z,3.13
2019-01-17T09:35:22.717Z,3.13
2019-01-17T09:37:51.045Z,3.40
2019-01-17T09:40:21.804Z,3.00
2019-01-17T09:42:50.287Z,2.75
2019-01-17T09:45:18.836Z,4.30
2019-01-17T09:47:47.227Z,3.17
2019-01-17T09:50:18.310Z,5.27
2019-01-17T09:52:46.752Z,3.83
2019-01-17T09:55:15.224Z,3.33
2019-01-17T09:57:43.541Z,3.20
2019-01-17T10:00:15.883Z,2.77
2019-01-17T10:02:44.314Z,2.43
2019-01-17T10:05:12.637Z,2.23
2019-01-17T10:07:41.929Z,2.50
2019-01-17T10:10:15.688Z,2.37
2019-01-17T10:12:44.232Z,2.15
2019-01-17T10:15:17.271Z,2.40
2019-01-17T10:17:50.040Z,2.80
2019-01-17T10:20:22.807Z,1.90
2019-01-17T10:22:56.011Z,1.87
2019-01-17T10:25:30.118Z,1.97
2019-01-17T10:28:01.762Z,1.80
2019-01-17T10:30:32.764Z,2.17
2019-01-17T10:33:05.461Z,1.80
2019-01-17T10:35:37.157Z,1.83
2019-01-17T10:38:09.861Z,1.90
2019-01-17T10:40:42.579Z,2.10
2019-01-17T10:43:13.355Z,2.55
2019-01-17T10:45:48.986Z,4.20
2019-01-17T10:48:23.782Z,1.70
2019-01-17T10:50:57.470Z,1.37
2019-01-17T10:53:29.335Z,3.10
2019-01-17T10:56:03.112Z,1.60
2019-01-17T10:58:37.811Z,2.17
2019-01-17T11:01:11.755Z,1.20
2019-01-17T11:03:46.323Z,1.60
2019-01-17T11:06:21.173Z,1.40
2019-01-17T11:08:54.120Z,1.50
2019-01-17T11:11:28.170Z,2.47
2019-01-17T11:14:00.807Z,1.20
2019-01-17T11:16:32.593Z,0.97
2019-01-17T11:19:04.381Z,1.20
2019-01-17T11:21:35.345Z,1.70
2019-01-17T11:24:11.056Z,1.07
2019-01-17T11:26:45.834Z,1.00
2019-01-17T11:29:21.479Z,1.00
2019-01-17T11:31:54.360Z,1.10
2019-01-17T11:34:30.079Z,1.07
2019-01-17T11:37:04.006Z,0.90
2019-01-17T11:39:37.087Z,1.70
2019-01-17T11:42:08.848Z,1.10
2019-01-17T11:44:42.666Z,1.27
2019-01-17T11:47:17.478Z,1.40
2019-01-17T11:49:54.054Z,1.20
2019-01-17T11:52:26.179Z,1.20
2019-01-17T11:55:02.020Z,0.93
2019-01-17T11:57:36.710Z,5.20
2019-01-17T12:00:09.517Z,15.90
2019-01-17T12:02:44.164Z,1.40
2019-01-17T12:05:12.497Z,1.20
2019-01-17T12:07:40.986Z,1.30
2019-01-17T12:10:10.069Z,0.67
2019-01-17T12:12:38.484Z,0.90
2019-01-17T12:15:08.810Z,0.80
2019-01-17T12:17:37.128Z,0.80
2019-01-17T12:20:07.724Z,0.90
2019-01-17T12:22:36.112Z,1.07
2019-01-17T12:25:06.078Z,0.80
2019-01-17T12:27:34.403Z,0.83
2019-01-17T12:30:03.051Z,0.80
2019-01-17T12:32:31.423Z,1.30
2019-01-17T12:34:59.770Z,0.80
2019-01-17T12:37:28.136Z,1.33
2019-01-17T12:39:56.456Z,1.10
2019-01-17T12:42:24.792Z,1.00
2019-01-17T12:44:53.138Z,1.40
2019-01-17T12:47:21.442Z,0.80
2019-01-17T12:49:49.839Z,0.97
2019-01-17T12:52:18.165Z,1.00
2019-01-17T12:54:46.502Z,1.00
2019-01-17T12:57:14.859Z,1.00
2019-01-17T12:59:43.197Z,0.97
2019-01-17T13:02:11.574Z,1.13
2019-01-17T13:04:39.966Z,1.20
2019-01-17T13:07:08.397Z,1.50
2019-01-17T13:09:36.737Z,1.17
2019-01-17T13:12:05.166Z,0.90
2019-01-17T13:14:33.496Z,1.53
2019-01-17T13:17:01.879Z,1.00
2019-01-17T13:19:30.208Z,1.20
2019-01-17T13:21:58.589Z,1.20
2019-01-17T13:24:27.045Z,1.20
2019-01-17T13:27:00.784Z,0.90
2019-01-17T13:29:25.751Z,1.30
2019-01-17T13:31:54.072Z,1.47
2019-01-17T13:34:22.549Z,0.90
2019-01-17T13:36:51.705Z,1.02
2019-01-17T13:39:20.251Z,1.00
2019-01-17T13:41:48.585Z,0.90
2019-01-17T13:44:16.937Z,1.70
2019-01-17T13:46:45.262Z,1.03
2019-01-17T13:49:13.588Z,0.97
2019-01-17T13:51:41.896Z,0.93
2019-01-17T13:54:10.851Z,0.90
2019-01-17T13:56:39.220Z,0.90
2019-01-17T13:59:07.902Z,1.20
2019-01-17T14:01:36.208Z,1.10
2019-01-17T14:04:04.785Z,1.00
2019-01-17T14:06:33.178Z,0.87
2019-01-17T14:09:01.550Z,1.00
2019-01-17T14:11:29.942Z,1.00
2019-01-17T14:13:58.259Z,0.90
2019-01-17T14:16:26.609Z,1.05
2019-01-17T14:18:55.132Z,0.90
2019-01-17T14:21:25.558Z,1.30
2019-01-17T14:23:53.982Z,0.90
2019-01-17T14:26:22.320Z,0.93
2019-01-17T14:28:50.694Z,1.00
2019-01-17T14:31:19.079Z,1.40
2019-01-17T14:33:47.404Z,0.80
2019-01-17T14:36:15.761Z,1.47
2019-01-17T14:38:45.384Z,1.03
2019-01-17T14:41:13.870Z,1.10
2019-01-17T14:43:42.342Z,2.10
2019-01-17T14:46:10.689Z,1.07
2019-01-17T14:48:39.001Z,1.00
2019-01-17T14:51:07.913Z,1.50
2019-01-17T14:53:36.230Z,1.33
2019-01-17T14:56:05.251Z,1.17
2019-01-17T14:58:33.529Z,1.00
2019-01-17T15:01:01.982Z,1.70
2019-01-17T15:03:30.313Z,1.30
2019-01-17T15:05:58.903Z,1.00
2019-01-17T15:08:27.213Z,1.10
2019-01-17T15:10:55.593Z,0.80
2019-01-17T15:13:23.956Z,0.90
2019-01-17T15:15:52.395Z,0.70
2019-01-17T15:18:20.732Z,0.93
2019-01-17T15:20:49.074Z,0.80
2019-01-17T15:23:17.399Z,0.70
2019-01-17T15:25:45.765Z,0.60
2019-01-17T15:28:14.115Z,0.63
2019-01-17T15:30:42.559Z,0.80
2019-01-17T15:33:10.992Z,0.72
2019-01-17T15:35:39.410Z,0.80
2019-01-17T15:38:08.008Z,0.80
2019-01-17T15:40:36.544Z,0.70
2019-01-17T15:43:04.839Z,0.97
2019-01-17T15:45:33.244Z,0.60
2019-01-17T15:48:01.598Z,0.80
2019-01-17T15:50:29.933Z,0.90
2019-01-17T15:52:58.305Z,0.90
2019-01-17T15:55:26.847Z,1.00
2019-01-17T15:57:55.187Z,0.80
2019-01-17T16:00:25.213Z,1.13
2019-01-17T16:02:53.540Z,1.00
2019-01-17T16:05:22.089Z,1.13
2019-01-17T16:07:50.443Z,1.17
2019-01-17T16:10:19.424Z,1.00
2019-01-17T16:12:48.174Z,1.00
2019-01-17T16:15:18.420Z,1.20
2019-01-17T16:17:46.762Z,1.63
2019-01-17T16:20:16.513Z,1.33
2019-01-17T16:22:44.954Z,1.10
2019-01-17T16:25:15.177Z,1.37
2019-01-17T16:27:43.569Z,1.20
2019-01-17T16:30:15.666Z,1.20
2019-01-17T16:32:44.271Z,1.40
2019-01-17T16:35:13.405Z,1.30
2019-01-17T16:37:41.777Z,1.30
2019-01-17T16:40:11.870Z,1.40
2019-01-17T16:42:40.274Z,1.60
2019-01-17T16:45:14.100Z,1.60
2019-01-17T16:47:42.459Z,1.37
2019-01-17T16:50:17.554Z,1.70
2019-01-17T16:52:45.974Z,1.30
2019-01-17T16:55:14.799Z,1.20
2019-01-17T16:57:48.749Z,1.53
2019-01-17T17:00:18.700Z,1.25
2019-01-17T17:02:47.033Z,1.23
2019-01-17T17:05:15.514Z,1.20
2019-01-17T17:07:43.873Z,1.47
2019-01-17T17:10:14.432Z,1.10
2019-01-17T17:12:42.821Z,1.50
2019-01-17T17:15:12.176Z,1.30
2019-01-17T17:17:40.553Z,1.07
2019-01-17T17:20:12.744Z,1.23
2019-01-17T17:22:41.336Z,1.40
2019-01-17T17:25:10.152Z,1.60
2019-01-17T17:27:38.546Z,1.25
2019-01-17T17:30:10.848Z,1.00
2019-01-17T17:32:39.170Z,1.10
2019-01-17T17:35:07.716Z,1.10
2019-01-17T17:37:36.093Z,1.00
2019-01-17T17:40:09.035Z,1.20
2019-01-17T17:42:37.393Z,1.40
2019-01-17T17:45:09.410Z,1.40
2019-01-17T17:47:37.704Z,1.67
2019-01-17T17:50:11.075Z,1.50
2019-01-17T17:52:39.461Z,1.70
2019-01-17T17:55:11.019Z,2.17
2019-01-17T17:57:39.427Z,1.70
2019-01-17T18:00:42.113Z,1.70
2019-01-17T18:03:11.065Z,1.70
2019-01-17T18:05:39.596Z,2.20
2019-01-17T18:08:08.042Z,2.30
2019-01-17T18:10:36.416Z,2.05
2019-01-17T18:13:04.808Z,1.93
2019-01-17T18:15:33.320Z,2.17
2019-01-17T18:18:01.821Z,1.63
2019-01-17T18:20:30.248Z,1.93
2019-01-17T18:22:58.617Z,1.32
2019-01-17T18:25:26.992Z,1.82
2019-01-17T18:27:55.345Z,1.70
2019-01-17T18:30:25.621Z,1.80
2019-01-17T18:32:54.103Z,1.90
2019-01-17T18:35:23.065Z,1.52
2019-01-17T18:37:51.437Z,1.63
2019-01-17T18:40:20.333Z,1.40
2019-01-17T18:42:48.891Z,1.60
2019-01-17T18:45:20.294Z,1.80
2019-01-17T18:47:48.706Z,1.55
2019-01-17T18:50:19.323Z,1.57
2019-01-17T18:52:47.786Z,1.62
2019-01-17T18:55:17.506Z,1.23
2019-01-17T18:57:46.032Z,1.80
2019-01-17T19:00:18.456Z,1.10
2019-01-17T19:02:46.798Z,1.33
2019-01-17T19:05:15.771Z,1.90
2019-01-17T19:07:44.116Z,1.20
2019-01-17T19:10:15.540Z,1.37
2019-01-17T19:13:09.222Z,1.27
2019-01-17T19:15:37.576Z,1.50
2019-01-17T19:18:05.962Z,1.35
2019-01-17T19:20:35.079Z,1.45
2019-01-17T19:23:03.558Z,1.40
2019-01-17T19:25:32.018Z,1.17
2019-01-17T19:28:00.326Z,1.20
2019-01-17T19:30:29.792Z,1.20
2019-01-17T19:32:58.196Z,1.32
2019-01-17T19:35:26.561Z,1.30
2019-01-17T19:37:55.019Z,1.40
2019-01-17T19:40:25.603Z,1.40
2019-01-17T19:42:54.049Z,1.90
2019-01-17T19:45:22.615Z,1.77
2019-01-17T19:47:51.002Z,1.37
2019-01-17T19:50:24.343Z,1.73
2019-01-17T19:52:52.746Z,0.97
2019-01-17T19:55:21.138Z,1.60
2019-01-17T19:57:49.577Z,1.50
2019-01-17T20:00:19.570Z,1.40
2019-01-17T20:02:48.099Z,1.50
2019-01-17T20:05:18.919Z,1.20
2019-01-17T20:07:47.448Z,1.40
2019-01-17T20:10:19.749Z,1.40
2019-01-17T20:12:48.164Z,1.30
2019-01-17T20:15:16.600Z,1.50
2019-01-17T20:17:45.048Z,2.03
2019-01-17T20:20:17.607Z,1.57
2019-01-17T20:22:46.472Z,1.30
2019-01-17T20:25:15.461Z,1.65
2019-01-17T20:27:43.932Z,1.40
2019-01-17T20:30:16.293Z,1.50
2019-01-17T20:32:44.639Z,1.50
2019-01-17T20:35:13.602Z,2.20
2019-01-17T20:37:41.938Z,1.50
2019-01-17T20:40:13.798Z,2.23
2019-01-17T20:42:42.152Z,1.87
2019-01-17T20:45:12.365Z,2.37
2019-01-17T20:47:40.936Z,1.50
2019-01-17T20:50:12.047Z,1.50
2019-01-17T20:52:40.378Z,1.80
2019-01-17T20:55:11.272Z,1.57
2019-01-17T20:57:39.676Z,1.67
2019-01-17T21:00:16.470Z,1.90
2019-01-17T21:02:44.795Z,1.50
2019-01-17T21:05:14.400Z,2.00
2019-01-17T21:07:42.790Z,1.60
2019-01-17T21:10:13.867Z,1.90
2019-01-17T21:12:42.234Z,1.82
2019-01-17T21:15:13.560Z,1.70
2019-01-17T21:17:41.910Z,2.20
2019-01-17T21:20:11.965Z,1.83
2019-01-17T21:22:40.269Z,2.20
2019-01-17T21:25:14.873Z,2.08
2019-01-17T21:27:43.272Z,1.87
2019-01-17T21:30:15.009Z,1.77
2019-01-17T21:32:43.339Z,1.80
2019-01-17T21:35:12.376Z,1.67
2019-01-17T21:37:40.731Z,1.93
2019-01-17T21:40:13.731Z,1.83
2019-01-17T21:42:42.011Z,1.90
2019-01-17T21:45:13.851Z,1.80
2019-01-17T21:47:42.926Z,2.60
2019-01-17T21:50:15.379Z,1.93
2019-01-17T21:52:43.685Z,1.90
2019-01-17T21:55:12.702Z,2.27
2019-01-17T21:57:41.425Z,2.20
2019-01-17T22:00:13.245Z,1.90
2019-01-17T22:02:41.674Z,2.00
2019-01-17T22:05:10.391Z,2.33
2019-01-17T22:07:38.701Z,2.47
2019-01-17T22:10:08.645Z,1.80
2019-01-17T22:12:37.102Z,2.43
2019-01-17T22:15:09.124Z,2.20
2019-01-17T22:17:37.434Z,2.25
2019-01-17T22:20:09.236Z,2.30
2019-01-17T22:22:37.570Z,2.02
2019-01-17T22:25:07.202Z,2.20
2019-01-17T22:27:35.541Z,2.00
2019-01-17T22:30:08.712Z,2.13
2019-01-17T22:32:37.738Z,2.50
2019-01-17T22:35:06.670Z,2.27
2019-01-17T22:37:34.970Z,2.37
2019-01-17T22:40:04.627Z,2.00
2019-01-17T22:42:33.264Z,2.40
2019-01-17T22:45:01.556Z,1.87
2019-01-17T22:47:30.005Z,2.13
2019-01-17T22:49:58.334Z,2.40
2019-01-17T22:52:26.654Z,1.50
2019-01-17T22:54:55.019Z,2.20
2019-01-17T22:57:23.352Z,2.00
2019-01-17T22:59:51.680Z,1.90
2019-01-17T23:02:20.017Z,2.00
2019-01-17T23:04:48.342Z,1.80
2019-01-17T23:07:16.737Z,1.50
2019-01-17T23:09:45.045Z,1.70
2019-01-17T23:12:13.445Z,1.53
2019-01-17T23:14:41.848Z,1.50
2019-01-17T23:17:10.266Z,1.83
2019-01-17T23:19:38.642Z,1.37
2019-01-17T23:22:07.108Z,1.40
2019-01-17T23:24:35.426Z,1.30
2019-01-17T23:27:03.950Z,1.70
2019-01-17T23:29:32.420Z,1.60
2019-01-17T23:32:01.294Z,1.50
2019-01-17T23:34:31.240Z,1.23
2019-01-17T23:37:00.158Z,1.60
2019-01-17T23:39:28.904Z,1.70
2019-01-17T23:41:57.254Z,1.50
2019-01-17T23:44:25.938Z,1.50
2019-01-17T23:46:54.268Z,1.60
2019-01-17T23:49:23.231Z,1.30
2019-01-17T23:51:51.612Z,1.53
2019-01-17T23:54:19.986Z,1.50
2019-01-17T23:56:48.535Z,1.50
2019-01-17T23:59:22.486Z,1.60
